< < Back
Terminal Aerodrome Forecast


Current Version              Previous Versions:   1  2  3  4  5  6  7  8  9  

Terminal Aerodrome Forecast

847
FTUS42 KFFC 301125
TAFFTY
TAF
KFTY 301125Z 3012/3112 00000KT P6SM SCT060
     FM301400 14006KT P6SM SCT025
     FM301700 15006KT P6SM BKN040
     FM310100 00000KT P6SM FEW060
     FM310900 00000KT P6SM BKN012=



Latest METAR

915
SAUS70 KWBC 301800 RRA
MTRFTY
METAR KFTY 301753Z 00000KT 10SM FEW047 BKN085 27/16 A3015 RMK AO2 SLP199
T02720161 10283 20189 58013


USA.gov is the U.S. government's official web portal to all federal, state and local government web resources and services.